sensor_id;sensor_type;location;lat;lon;timestamp;temperature;humidity
30244;DHT22;61465;53.652;9.792;2022-08-20T00:00:21;19.10;91.60
30244;DHT22;61465;53.652;9.792;2022-08-20T00:02:55;19.10;91.50
30244;DHT22;61465;53.652;9.792;2022-08-20T00:05:43;19.10;91.60
30244;DHT22;61465;53.652;9.792;2022-08-20T00:08:10;19.20;91.40
30244;DHT22;61465;53.652;9.792;2022-08-20T00:10:41;19.20;91.60
30244;DHT22;61465;53.652;9.792;2022-08-20T00:13:11;19.20;91.60
30244;DHT22;61465;53.652;9.792;2022-08-20T00:15:38;19.20;91.60
30244;DHT22;61465;53.652;9.792;2022-08-20T00:18:04;19.30;91.60
30244;DHT22;61465;53.652;9.792;2022-08-20T00:20:37;19.30;91.80
30244;DHT22;61465;53.652;9.792;2022-08-20T00:23:03;19.30;91.60
30244;DHT22;61465;53.652;9.792;2022-08-20T00:25:29;19.30;91.80
30244;DHT22;61465;53.652;9.792;2022-08-20T00:27:56;19.30;91.60
30244;DHT22;61465;53.652;9.792;2022-08-20T00:30:23;19.30;91.60
30244;DHT22;61465;53.652;9.792;2022-08-20T00:32:55;19.30;91.60
30244;DHT22;61465;53.652;9.792;2022-08-20T00:35:28;19.30;91.60
30244;DHT22;61465;53.652;9.792;2022-08-20T00:37:54;19.30;91.60
30244;DHT22;61465;53.652;9.792;2022-08-20T00:40:24;19.30;91.60
30244;DHT22;61465;53.652;9.792;2022-08-20T00:42:54;19.30;91.60
30244;DHT22;61465;53.652;9.792;2022-08-20T00:45:24;19.30;91.60
30244;DHT22;61465;53.652;9.792;2022-08-20T00:47:50;19.30;91.60
30244;DHT22;61465;53.652;9.792;2022-08-20T00:50:19;19.40;91.60
30244;DHT22;61465;53.652;9.792;2022-08-20T00:52:47;19.40;91.60
30244;DHT22;61465;53.652;9.792;2022-08-20T00:55:15;19.40;91.60
30244;DHT22;61465;53.652;9.792;2022-08-20T00:57:51;19.40;91.60
30244;DHT22;61465;53.652;9.792;2022-08-20T01:00:26;19.40;91.60
30244;DHT22;61465;53.652;9.792;2022-08-20T01:02:54;19.50;91.70
30244;DHT22;61465;53.652;9.792;2022-08-20T01:05:20;19.40;91.70
30244;DHT22;61465;53.652;9.792;2022-08-20T01:07:49;19.50;91.70
30244;DHT22;61465;53.652;9.792;2022-08-20T01:10:21;19.40;91.70
30244;DHT22;61465;53.652;9.792;2022-08-20T01:12:49;19.40;91.60
30244;DHT22;61465;53.652;9.792;2022-08-20T01:15:16;19.50;91.60
30244;DHT22;61465;53.652;9.792;2022-08-20T01:17:46;19.50;91.30
30244;DHT22;61465;53.652;9.792;2022-08-20T01:20:26;19.40;91.60
30244;DHT22;61465;53.652;9.792;2022-08-20T01:23:13;19.40;91.60
30244;DHT22;61465;53.652;9.792;2022-08-20T01:26:06;19.40;91.60
30244;DHT22;61465;53.652;9.792;2022-08-20T01:28:49;19.40;91.70
30244;DHT22;61465;53.652;9.792;2022-08-20T01:31:20;19.40;91.70
30244;DHT22;61465;53.652;9.792;2022-08-20T01:33:46;19.40;91.70
30244;DHT22;61465;53.652;9.792;2022-08-20T01:36:14;19.40;91.70
30244;DHT22;61465;53.652;9.792;2022-08-20T01:38:42;19.40;91.70
30244;DHT22;61465;53.652;9.792;2022-08-20T01:43:50;19.40;91.60
30244;DHT22;61465;53.652;9.792;2022-08-20T01:46:26;19.40;91.60
30244;DHT22;61465;53.652;9.792;2022-08-20T01:48:53;19.40;91.60
30244;DHT22;61465;53.652;9.792;2022-08-20T01:51:23;19.50;91.60
30244;DHT22;61465;53.652;9.792;2022-08-20T01:53:52;19.50;91.60
30244;DHT22;61465;53.652;9.792;2022-08-20T01:56:22;19.40;91.60
30244;DHT22;61465;53.652;9.792;2022-08-20T01:58:50;19.40;91.60
30244;DHT22;61465;53.652;9.792;2022-08-20T02:01:20;19.40;91.50
30244;DHT22;61465;53.652;9.792;2022-08-20T02:03:46;19.40;91.50
30244;DHT22;61465;53.652;9.792;2022-08-20T02:06:12;19.40;91.50
30244;DHT22;61465;53.652;9.792;2022-08-20T02:08:38;19.40;91.50
30244;DHT22;61465;53.652;9.792;2022-08-20T02:11:03;19.50;91.50
30244;DHT22;61465;53.652;9.792;2022-08-20T02:13:29;19.50;91.50
30244;DHT22;61465;53.652;9.792;2022-08-20T02:15:54;19.40;91.50
30244;DHT22;61465;53.652;9.792;2022-08-20T02:18:20;19.40;91.50
30244;DHT22;61465;53.652;9.792;2022-08-20T02:20:46;19.40;91.50
30244;DHT22;61465;53.652;9.792;2022-08-20T02:23:12;19.40;91.50
30244;DHT22;61465;53.652;9.792;2022-08-20T02:25:41;19.40;91.60
30244;DHT22;61465;53.652;9.792;2022-08-20T02:28:11;19.40;91.50
30244;DHT22;61465;53.652;9.792;2022-08-20T02:30:41;19.40;91.50
30244;DHT22;61465;53.652;9.792;2022-08-20T02:33:09;19.40;91.60
30244;DHT22;61465;53.652;9.792;2022-08-20T02:35:36;19.40;91.60
30244;DHT22;61465;53.652;9.792;2022-08-20T02:38:02;19.40;91.60
30244;DHT22;61465;53.652;9.792;2022-08-20T02:40:28;19.40;91.60
30244;DHT22;61465;53.652;9.792;2022-08-20T02:42:54;19.40;91.60
30244;DHT22;61465;53.652;9.792;2022-08-20T02:45:20;19.40;91.60
30244;DHT22;61465;53.652;9.792;2022-08-20T02:47:47;19.40;91.60
30244;DHT22;61465;53.652;9.792;2022-08-20T02:50:17;19.40;91.70
30244;DHT22;61465;53.652;9.792;2022-08-20T02:52:43;19.40;91.60
30244;DHT22;61465;53.652;9.792;2022-08-20T02:55:09;19.40;91.70
30244;DHT22;61465;53.652;9.792;2022-08-20T02:57:35;19.40;91.70
30244;DHT22;61465;53.652;9.792;2022-08-20T03:00:06;19.40;91.40
30244;DHT22;61465;53.652;9.792;2022-08-20T03:02:32;19.30;91.70
30244;DHT22;61465;53.652;9.792;2022-08-20T03:04:57;19.30;91.80
30244;DHT22;61465;53.652;9.792;2022-08-20T03:07:23;19.30;91.80
30244;DHT22;61465;53.652;9.792;2022-08-20T03:09:48;19.40;91.80
30244;DHT22;61465;53.652;9.792;2022-08-20T03:12:14;19.30;91.80
30244;DHT22;61465;53.652;9.792;2022-08-20T03:14:40;19.30;91.90
30244;DHT22;61465;53.652;9.792;2022-08-20T03:17:06;19.40;91.90
30244;DHT22;61465;53.652;9.792;2022-08-20T03:19:31;19.40;92.00
30244;DHT22;61465;53.652;9.792;2022-08-20T03:21:57;19.30;92.00
30244;DHT22;61465;53.652;9.792;2022-08-20T03:24:23;19.40;92.00
30244;DHT22;61465;53.652;9.792;2022-08-20T03:26:48;19.40;92.10
30244;DHT22;61465;53.652;9.792;2022-08-20T03:29:14;19.30;92.10
30244;DHT22;61465;53.652;9.792;2022-08-20T03:31:40;19.40;92.10
30244;DHT22;61465;53.652;9.792;2022-08-20T03:34:05;19.40;92.40
30244;DHT22;61465;53.652;9.792;2022-08-20T03:36:31;19.40;92.20
30244;DHT22;61465;53.652;9.792;2022-08-20T03:38:58;19.40;92.20
30244;DHT22;61465;53.652;9.792;2022-08-20T03:41:24;19.40;92.30
30244;DHT22;61465;53.652;9.792;2022-08-20T03:43:51;19.40;92.30
30244;DHT22;61465;53.652;9.792;2022-08-20T03:46:17;19.40;92.30
30244;DHT22;61465;53.652;9.792;2022-08-20T03:48:43;19.40;92.30
30244;DHT22;61465;53.652;9.792;2022-08-20T03:51:08;19.40;92.30
30244;DHT22;61465;53.652;9.792;2022-08-20T03:53:34;19.40;92.40
30244;DHT22;61465;53.652;9.792;2022-08-20T03:56:03;19.40;92.40
30244;DHT22;61465;53.652;9.792;2022-08-20T03:58:31;19.40;92.50
30244;DHT22;61465;53.652;9.792;2022-08-20T04:00:57;19.40;92.50
30244;DHT22;61465;53.652;9.792;2022-08-20T04:03:23;19.40;92.60
30244;DHT22;61465;53.652;9.792;2022-08-20T04:05:49;19.40;92.60
30244;DHT22;61465;53.652;9.792;2022-08-20T04:08:19;19.40;92.60
30244;DHT22;61465;53.652;9.792;2022-08-20T04:10:46;19.40;92.70
30244;DHT22;61465;53.652;9.792;2022-08-20T04:13:14;19.40;92.80
30244;DHT22;61465;53.652;9.792;2022-08-20T04:15:40;19.40;92.80
30244;DHT22;61465;53.652;9.792;2022-08-20T04:18:07;19.40;92.80
30244;DHT22;61465;53.652;9.792;2022-08-20T04:20:35;19.40;92.90
30244;DHT22;61465;53.652;9.792;2022-08-20T04:23:02;19.40;92.90
30244;DHT22;61465;53.652;9.792;2022-08-20T04:25:29;19.40;92.90
30244;DHT22;61465;53.652;9.792;2022-08-20T04:27:57;19.40;93.00
30244;DHT22;61465;53.652;9.792;2022-08-20T04:30:23;19.40;93.00
30244;DHT22;61465;53.652;9.792;2022-08-20T04:32:50;19.40;93.10
30244;DHT22;61465;53.652;9.792;2022-08-20T04:35:17;19.40;93.10
30244;DHT22;61465;53.652;9.792;2022-08-20T04:37:44;19.40;93.10
30244;DHT22;61465;53.652;9.792;2022-08-20T04:40:16;19.40;93.10
30244;DHT22;61465;53.652;9.792;2022-08-20T04:43:02;19.40;93.20
30244;DHT22;61465;53.652;9.792;2022-08-20T04:45:29;19.40;93.20
30244;DHT22;61465;53.652;9.792;2022-08-20T04:47:55;19.50;93.20
30244;DHT22;61465;53.652;9.792;2022-08-20T04:50:21;19.40;93.20
30244;DHT22;61465;53.652;9.792;2022-08-20T04:52:47;19.50;93.30
30244;DHT22;61465;53.652;9.792;2022-08-20T04:55:15;19.50;93.30
30244;DHT22;61465;53.652;9.792;2022-08-20T04:57:41;19.50;93.30
30244;DHT22;61465;53.652;9.792;2022-08-20T05:00:11;19.50;93.40
30244;DHT22;61465;53.652;9.792;2022-08-20T05:02:38;19.50;93.40
30244;DHT22;61465;53.652;9.792;2022-08-20T05:05:05;19.60;93.50
30244;DHT22;61465;53.652;9.792;2022-08-20T05:07:40;19.60;93.50
30244;DHT22;61465;53.652;9.792;2022-08-20T05:10:08;19.60;93.50
30244;DHT22;61465;53.652;9.792;2022-08-20T05:12:34;19.70;93.60
30244;DHT22;61465;53.652;9.792;2022-08-20T05:15:00;19.80;93.70
30244;DHT22;61465;53.652;9.792;2022-08-20T05:17:25;19.80;93.70
30244;DHT22;61465;53.652;9.792;2022-08-20T05:19:51;19.80;93.90
30244;DHT22;61465;53.652;9.792;2022-08-20T05:22:17;19.80;93.80
30244;DHT22;61465;53.652;9.792;2022-08-20T05:24:43;19.80;93.80
30244;DHT22;61465;53.652;9.792;2022-08-20T05:27:09;19.90;93.90
30244;DHT22;61465;53.652;9.792;2022-08-20T05:29:35;19.90;93.90
30244;DHT22;61465;53.652;9.792;2022-08-20T05:32:00;20.00;93.90
30244;DHT22;61465;53.652;9.792;2022-08-20T05:34:27;20.00;94.00
30244;DHT22;61465;53.652;9.792;2022-08-20T05:36:53;20.00;94.00
30244;DHT22;61465;53.652;9.792;2022-08-20T05:39:20;20.10;94.00
30244;DHT22;61465;53.652;9.792;2022-08-20T05:41:46;20.10;94.10
30244;DHT22;61465;53.652;9.792;2022-08-20T05:44:14;20.20;94.10
30244;DHT22;61465;53.652;9.792;2022-08-20T05:46:42;20.20;94.20
30244;DHT22;61465;53.652;9.792;2022-08-20T05:49:14;20.30;94.20
30244;DHT22;61465;53.652;9.792;2022-08-20T05:51:41;20.30;94.20
30244;DHT22;61465;53.652;9.792;2022-08-20T05:54:07;20.30;94.20
30244;DHT22;61465;53.652;9.792;2022-08-20T05:56:33;20.40;94.30
30244;DHT22;61465;53.652;9.792;2022-08-20T05:59:00;20.40;94.30
30244;DHT22;61465;53.652;9.792;2022-08-20T06:01:30;20.50;94.30
30244;DHT22;61465;53.652;9.792;2022-08-20T06:03:56;20.50;94.40
30244;DHT22;61465;53.652;9.792;2022-08-20T06:06:40;20.50;93.90
30244;DHT22;61465;53.652;9.792;2022-08-20T06:09:06;20.60;94.40
30244;DHT22;61465;53.652;9.792;2022-08-20T06:11:31;20.60;94.40
30244;DHT22;61465;53.652;9.792;2022-08-20T06:13:58;20.70;94.40
30244;DHT22;61465;53.652;9.792;2022-08-20T06:16:24;20.70;94.40
30244;DHT22;61465;53.652;9.792;2022-08-20T06:18:49;20.90;94.50
30244;DHT22;61465;53.652;9.792;2022-08-20T06:21:15;20.90;94.50
30244;DHT22;61465;53.652;9.792;2022-08-20T06:23:41;21.00;94.50
30244;DHT22;61465;53.652;9.792;2022-08-20T06:26:07;21.10;94.50
30244;DHT22;61465;53.652;9.792;2022-08-20T06:28:34;21.20;94.50
30244;DHT22;61465;53.652;9.792;2022-08-20T06:30:59;21.30;94.50
30244;DHT22;61465;53.652;9.792;2022-08-20T06:33:25;21.40;94.50
30244;DHT22;61465;53.652;9.792;2022-08-20T06:35:50;21.50;94.50
30244;DHT22;61465;53.652;9.792;2022-08-20T06:38:16;21.60;94.50
30244;DHT22;61465;53.652;9.792;2022-08-20T06:40:41;21.70;94.50
30244;DHT22;61465;53.652;9.792;2022-08-20T06:43:07;21.80;94.50
30244;DHT22;61465;53.652;9.792;2022-08-20T06:45:37;21.90;94.50
30244;DHT22;61465;53.652;9.792;2022-08-20T06:48:07;22.00;94.60
30244;DHT22;61465;53.652;9.792;2022-08-20T06:50:37;22.20;94.60
30244;DHT22;61465;53.652;9.792;2022-08-20T06:53:04;22.30;94.50
30244;DHT22;61465;53.652;9.792;2022-08-20T06:55:30;22.50;94.50
30244;DHT22;61465;53.652;9.792;2022-08-20T06:58:02;22.70;94.40
30244;DHT22;61465;53.652;9.792;2022-08-20T07:00:29;22.80;94.40
30244;DHT22;61465;53.652;9.792;2022-08-20T07:02:56;23.00;94.20
30244;DHT22;61465;53.652;9.792;2022-08-20T07:05:25;23.10;94.10
30244;DHT22;61465;53.652;9.792;2022-08-20T07:07:51;23.20;94.00
30244;DHT22;61465;53.652;9.792;2022-08-20T07:10:18;23.30;94.00
30244;DHT22;61465;53.652;9.792;2022-08-20T07:12:44;23.30;93.90
30244;DHT22;61465;53.652;9.792;2022-08-20T07:15:11;23.30;93.80
30244;DHT22;61465;53.652;9.792;2022-08-20T07:17:38;23.40;93.70
30244;DHT22;61465;53.652;9.792;2022-08-20T07:20:09;23.40;93.70
30244;DHT22;61465;53.652;9.792;2022-08-20T07:22:35;23.50;93.60
30244;DHT22;61465;53.652;9.792;2022-08-20T07:25:03;23.60;93.50
30244;DHT22;61465;53.652;9.792;2022-08-20T07:27:29;23.60;93.50
30244;DHT22;61465;53.652;9.792;2022-08-20T07:29:55;23.70;93.30
30244;DHT22;61465;53.652;9.792;2022-08-20T07:32:40;23.80;93.20
30244;DHT22;61465;53.652;9.792;2022-08-20T07:35:08;23.90;93.10
30244;DHT22;61465;53.652;9.792;2022-08-20T07:37:41;24.00;93.00
30244;DHT22;61465;53.652;9.792;2022-08-20T07:40:16;24.10;93.00
30244;DHT22;61465;53.652;9.792;2022-08-20T07:42:42;24.20;92.80
30244;DHT22;61465;53.652;9.792;2022-08-20T07:45:09;24.50;92.80
30244;DHT22;61465;53.652;9.792;2022-08-20T07:47:36;24.70;92.70
30244;DHT22;61465;53.652;9.792;2022-08-20T07:50:04;24.90;92.70
30244;DHT22;61465;53.652;9.792;2022-08-20T07:52:30;25.20;92.50
30244;DHT22;61465;53.652;9.792;2022-08-20T07:54:56;25.40;92.40
30244;DHT22;61465;53.652;9.792;2022-08-20T07:57:21;25.70;92.80
30244;DHT22;61465;53.652;9.792;2022-08-20T07:59:47;25.90;92.60
30244;DHT22;61465;53.652;9.792;2022-08-20T08:02:13;26.20;92.40
30244;DHT22;61465;53.652;9.792;2022-08-20T08:04:39;26.50;92.20
30244;DHT22;61465;53.652;9.792;2022-08-20T08:07:05;26.70;92.20
30244;DHT22;61465;53.652;9.792;2022-08-20T08:09:32;26.80;92.30
30244;DHT22;61465;53.652;9.792;2022-08-20T08:11:58;26.90;92.10
30244;DHT22;61465;53.652;9.792;2022-08-20T08:14:30;27.00;91.80
30244;DHT22;61465;53.652;9.792;2022-08-20T08:17:01;27.20;92.10
30244;DHT22;61465;53.652;9.792;2022-08-20T08:19:29;27.60;91.80
30244;DHT22;61465;53.652;9.792;2022-08-20T08:22:06;28.10;91.70
30244;DHT22;61465;53.652;9.792;2022-08-20T08:24:33;28.50;91.90
30244;DHT22;61465;53.652;9.792;2022-08-20T08:26:58;28.80;91.20
30244;DHT22;61465;53.652;9.792;2022-08-20T08:29:24;29.10;91.30
30244;DHT22;61465;53.652;9.792;2022-08-20T08:31:50;29.00;90.80
30244;DHT22;61465;53.652;9.792;2022-08-20T08:34:16;29.20;91.00
30244;DHT22;61465;53.652;9.792;2022-08-20T08:36:41;29.30;90.70
30244;DHT22;61465;53.652;9.792;2022-08-20T08:39:08;29.50;90.80
30244;DHT22;61465;53.652;9.792;2022-08-20T08:41:42;29.90;90.40
30244;DHT22;61465;53.652;9.792;2022-08-20T08:44:21;30.20;90.50
30244;DHT22;61465;53.652;9.792;2022-08-20T08:46:50;30.50;90.20
30244;DHT22;61465;53.652;9.792;2022-08-20T08:49:19;30.80;92.00
30244;DHT22;61465;53.652;9.792;2022-08-20T08:51:56;31.10;89.90
30244;DHT22;61465;53.652;9.792;2022-08-20T08:54:25;31.20;88.50
30244;DHT22;61465;53.652;9.792;2022-08-20T08:56:53;30.90;87.90
30244;DHT22;61465;53.652;9.792;2022-08-20T08:59:20;30.50;86.90
30244;DHT22;61465;53.652;9.792;2022-08-20T09:01:49;30.60;87.00
30244;DHT22;61465;53.652;9.792;2022-08-20T09:04:16;30.80;86.60
30244;DHT22;61465;53.652;9.792;2022-08-20T09:06:43;30.90;86.20
30244;DHT22;61465;53.652;9.792;2022-08-20T09:09:21;31.00;85.40
30244;DHT22;61465;53.652;9.792;2022-08-20T09:11:52;31.00;86.70
30244;DHT22;61465;53.652;9.792;2022-08-20T09:14:18;30.70;84.60
30244;DHT22;61465;53.652;9.792;2022-08-20T09:16:44;30.50;84.10
30244;DHT22;61465;53.652;9.792;2022-08-20T09:19:10;30.30;83.80
30244;DHT22;61465;53.652;9.792;2022-08-20T09:21:36;30.10;83.30
30244;DHT22;61465;53.652;9.792;2022-08-20T09:24:02;29.90;83.00
30244;DHT22;61465;53.652;9.792;2022-08-20T09:26:27;29.90;82.80
30244;DHT22;61465;53.652;9.792;2022-08-20T09:28:53;29.80;82.50
30244;DHT22;61465;53.652;9.792;2022-08-20T09:31:18;29.60;82.10
30244;DHT22;61465;53.652;9.792;2022-08-20T09:33:44;29.40;81.70
30244;DHT22;61465;53.652;9.792;2022-08-20T09:36:09;29.40;82.00
30244;DHT22;61465;53.652;9.792;2022-08-20T09:38:35;29.60;82.00
30244;DHT22;61465;53.652;9.792;2022-08-20T09:41:00;29.80;81.60
30244;DHT22;61465;53.652;9.792;2022-08-20T09:43:26;29.80;81.40
30244;DHT22;61465;53.652;9.792;2022-08-20T09:45:51;29.80;81.20
30244;DHT22;61465;53.652;9.792;2022-08-20T09:48:17;29.80;80.70
30244;DHT22;61465;53.652;9.792;2022-08-20T09:50:45;30.00;80.70
30244;DHT22;61465;53.652;9.792;2022-08-20T09:53:12;30.10;80.60
30244;DHT22;61465;53.652;9.792;2022-08-20T09:55:42;30.00;80.30
30244;DHT22;61465;53.652;9.792;2022-08-20T09:58:33;29.90;83.60
30244;DHT22;61465;53.652;9.792;2022-08-20T10:01:07;30.30;81.60
